Time;durP1;ratioP1;P1;durP2;ratioP2;P2;SDS_P1;SDS_P2;PMS_P1;PMS_P2;Temp;Humidity;BMP_temperature;BMP_pressure;BME280_temperature;BME280_humidity;BME280_pressure;Samples;Min_cycle;Max_cycle;Signal;HPM_P1;HPM_P2
2021/01/20 00:02:24;;;;;;;55.35;22.20;;;;;;;;;;1705562;83;21334;-77
2021/01/20 00:04:50;;;;;;;57.17;23.87;;;;;;;;;;1705138;84;21163;-77
2021/01/20 00:07:16;;;;;;;52.85;22.00;;;;;;;;;;1704881;84;21191;-77
2021/01/20 00:09:42;;;;;;;62.33;23.60;;;;;;;;;;1705073;84;21556;-77
2021/01/20 00:12:09;;;;;;;64.82;24.25;;;;;;;;;;1713763;83;21490;-77
2021/01/20 00:14:35;;;;;;;66.30;27.00;;;;;;;;;;1732524;83;21171;-76
2021/01/20 00:17:01;;;;;;;65.90;26.05;;;;;;;;;;1728032;83;21179;-77
2021/01/20 00:19:27;;;;;;;67.37;25.82;;;;;;;;;;1727372;83;21176;-75
2021/01/20 00:21:53;;;;;;;56.35;25.27;;;;;;;;;;1726334;83;21160;-77
2021/01/20 00:24:20;;;;;;;56.28;24.40;;;;;;;;;;1727183;83;21635;-76
2021/01/20 00:26:46;;;;;;;67.22;25.92;;;;;;;;;;1727210;83;21148;-76
2021/01/20 00:29:12;;;;;;;60.25;25.00;;;;;;;;;;1727177;83;21534;-76
2021/01/20 00:31:38;;;;;;;72.03;23.85;;;;;;;;;;1727057;83;21144;-76
2021/01/20 00:34:04;;;;;;;58.83;23.38;;;;;;;;;;1727746;83;21171;-77
2021/01/20 00:36:30;;;;;;;63.87;26.57;;;;;;;;;;1732591;82;21198;-76
2021/01/20 00:38:56;;;;;;;55.05;22.50;;;;;;;;;;1752693;82;21174;-75
2021/01/20 00:41:22;;;;;;;59.58;25.12;;;;;;;;;;1732963;82;21555;-77
2021/01/20 00:43:49;;;;;;;60.35;25.10;;;;;;;;;;1725524;83;21209;-77
2021/01/20 00:46:15;;;;;;;61.42;23.55;;;;;;;;;;1725493;83;21597;-75
2021/01/20 00:48:41;;;;;;;55.80;22.27;;;;;;;;;;1727321;82;21194;-76
2021/01/20 00:51:07;;;;;;;59.42;24.07;;;;;;;;;;1725311;83;21182;-76
2021/01/20 00:53:33;;;;;;;54.45;24.12;;;;;;;;;;1725145;83;21280;-77
2021/01/20 00:55:59;;;;;;;57.60;22.87;;;;;;;;;;1700739;83;21189;-76
2021/01/20 00:58:25;;;;;;;59.20;24.82;;;;;;;;;;1738807;82;21590;-77
2021/01/20 01:00:52;;;;;;;52.98;23.18;;;;;;;;;;1755197;82;21252;-77
2021/01/20 01:03:18;;;;;;;57.35;23.85;;;;;;;;;;1755553;82;21157;-77
2021/01/20 01:05:44;;;;;;;56.80;22.40;;;;;;;;;;1755131;81;21146;-76
2021/01/20 01:08:10;;;;;;;66.53;25.88;;;;;;;;;;1751220;82;21198;-75
2021/01/20 01:10:37;;;;;;;49.83;21.17;;;;;;;;;;1755157;82;21174;-76
2021/01/20 01:13:03;;;;;;;57.45;21.42;;;;;;;;;;1755147;82;21174;-76
2021/01/20 01:15:29;;;;;;;58.95;23.73;;;;;;;;;;1756204;81;21162;-76
2021/01/20 01:17:55;;;;;;;59.27;23.90;;;;;;;;;;1742212;81;21154;-79
2021/01/20 01:20:21;;;;;;;67.72;25.30;;;;;;;;;;1768377;81;21581;-77
2021/01/20 01:22:48;;;;;;;56.90;23.15;;;;;;;;;;1728976;82;21153;-76
2021/01/20 01:25:14;;;;;;;54.55;20.30;;;;;;;;;;1741226;81;21117;-77
2021/01/20 01:27:40;;;;;;;55.45;21.50;;;;;;;;;;1769865;81;21333;-76
2021/01/20 01:30:06;;;;;;;51.25;20.45;;;;;;;;;;1769516;81;21173;-76
2021/01/20 01:32:33;;;;;;;60.35;23.35;;;;;;;;;;1769519;81;21227;-75
2021/01/20 01:34:59;;;;;;;52.35;22.07;;;;;;;;;;1769413;81;21157;-75
2021/01/20 01:37:25;;;;;;;52.45;23.02;;;;;;;;;;1769689;81;21161;-76
2021/01/20 01:39:51;;;;;;;56.68;22.13;;;;;;;;;;1747034;81;21581;-76
2021/01/20 01:42:19;;;;;;;56.25;20.52;;;;;;;;;;1708167;82;21618;-77
2021/01/20 01:44:45;;;;;;;54.80;20.80;;;;;;;;;;1765752;81;21143;-75
2021/01/20 01:47:12;;;;;;;51.63;19.85;;;;;;;;;;1768036;81;21574;-75
2021/01/20 01:49:38;;;;;;;50.48;19.48;;;;;;;;;;1764143;81;21176;-75
2021/01/20 01:52:04;;;;;;;48.13;19.65;;;;;;;;;;1748295;82;21600;-75
2021/01/20 01:54:30;;;;;;;49.13;20.15;;;;;;;;;;1766116;81;21579;-75
2021/01/20 01:56:56;;;;;;;46.33;20.23;;;;;;;;;;1748420;82;21327;-75
2021/01/20 01:59:22;;;;;;;52.78;22.13;;;;;;;;;;1742396;81;21187;-76
2021/01/20 02:01:49;;;;;;;49.58;20.43;;;;;;;;;;1752066;82;21164;-75
2021/01/20 02:04:15;;;;;;;48.85;19.75;;;;;;;;;;1766108;81;21167;-75
2021/01/20 02:06:41;;;;;;;46.68;21.00;;;;;;;;;;1765822;81;21166;-75
2021/01/20 02:09:07;;;;;;;49.35;20.08;;;;;;;;;;1769423;81;21191;-75
2021/01/20 02:11:35;;;;;;;42.38;19.90;;;;;;;;;;1768380;81;21603;-76
2021/01/20 02:14:10;;;;;;;36.60;14.93;;;;;;;;;;1758246;81;21188;-76
2021/01/20 02:16:35;;;;;;;;;;;;;;;;;;1760948;81;21188;-76
2021/01/20 02:19:02;;;;;;;53.52;19.92;;;;;;;;;;1732723;83;20132;-77
2021/01/20 02:21:38;;;;;;;53.38;20.52;;;;;;;;;;1770045;81;21319;-76
2021/01/20 02:24:04;;;;;;;45.48;17.67;;;;;;;;;;1744809;81;21189;-76
2021/01/20 02:26:49;;;;;;;41.40;19.57;;;;;;;;;;1739072;82;21186;-75
2021/01/20 02:29:29;;;;;;;31.45;11.85;;;;;;;;;;1760155;81;21186;-77
2021/01/20 02:31:55;;;;;;;44.80;18.42;;;;;;;;;;1769567;81;21221;-77
2021/01/20 02:34:21;;;;;;;35.23;12.98;;;;;;;;;;1769919;81;21162;-77
2021/01/20 02:36:48;;;;;;;39.50;16.60;;;;;;;;;;1769374;81;21210;-77
2021/01/20 02:39:16;;;;;;;36.48;15.63;;;;;;;;;;1748637;81;21184;-76
2021/01/20 02:41:42;;;;;;;46.20;19.57;;;;;;;;;;1760428;81;21148;-74
2021/01/20 02:44:08;;;;;;;34.63;15.23;;;;;;;;;;1757901;81;21149;-76
2021/01/20 02:46:36;;;;;;;34.50;12.10;;;;;;;;;;1744152;81;21154;-75
2021/01/20 02:49:02;;;;;;;43.70;18.32;;;;;;;;;;1763293;81;21122;-75
2021/01/20 02:51:42;;;;;;;48.48;21.07;;;;;;;;;;1752621;81;21169;-75
2021/01/20 02:54:09;;;;;;;44.40;18.77;;;;;;;;;;1741318;81;21170;-77
2021/01/20 02:56:35;;;;;;;46.35;18.20;;;;;;;;;;1741557;81;21703;-77
2021/01/20 02:59:02;;;;;;;51.45;19.87;;;;;;;;;;1739663;82;21224;-76
2021/01/20 03:01:29;;;;;;;45.15;18.98;;;;;;;;;;1739758;82;21699;-76
2021/01/20 03:03:59;;;;;;;51.48;19.37;;;;;;;;;;1757265;81;21181;-77
2021/01/20 03:06:25;;;;;;;49.18;19.82;;;;;;;;;;1769971;80;21219;-77
2021/01/20 03:08:51;;;;;;;45.00;18.75;;;;;;;;;;1769659;81;21161;-76
2021/01/20 03:11:17;;;;;;;54.50;19.77;;;;;;;;;;1743621;81;21188;-76
2021/01/20 03:13:43;;;;;;;46.73;19.87;;;;;;;;;;1768883;81;21158;-76
2021/01/20 03:16:09;;;;;;;48.75;19.65;;;;;;;;;;1752627;81;21247;-77
2021/01/20 03:18:36;;;;;;;46.68;20.08;;;;;;;;;;1731964;81;21601;-76
2021/01/20 03:21:02;;;;;;;44.53;19.05;;;;;;;;;;1732173;82;21247;-78
2021/01/20 03:23:28;;;;;;;54.13;21.20;;;;;;;;;;1733271;81;21161;-77
2021/01/20 03:25:56;;;;;;;55.85;20.97;;;;;;;;;;1762142;81;21170;-77
2021/01/20 03:28:23;;;;;;;54.80;22.50;;;;;;;;;;1762222;81;21649;-77
2021/01/20 03:30:50;;;;;;;51.30;21.10;;;;;;;;;;1761486;81;21142;-76
2021/01/20 03:33:16;;;;;;;53.90;22.42;;;;;;;;;;1762180;81;21174;-75
2021/01/20 03:35:42;;;;;;;55.05;20.40;;;;;;;;;;1759848;81;21145;-76
2021/01/20 03:38:08;;;;;;;45.08;20.27;;;;;;;;;;1761915;81;21464;-77
2021/01/20 03:40:35;;;;;;;57.48;23.85;;;;;;;;;;1762083;81;21613;-77
2021/01/20 03:43:01;;;;;;;60.43;24.92;;;;;;;;;;1761900;81;21190;-77
2021/01/20 03:45:27;;;;;;;55.15;22.65;;;;;;;;;;1747139;81;21620;-77
2021/01/20 03:47:54;;;;;;;54.08;21.77;;;;;;;;;;1731928;83;21174;-76
2021/01/20 03:50:20;;;;;;;47.83;20.82;;;;;;;;;;1731779;82;21646;-76
2021/01/20 03:52:46;;;;;;;49.75;21.95;;;;;;;;;;1731834;83;21204;-76
2021/01/20 03:55:12;;;;;;;49.67;21.45;;;;;;;;;;1732084;81;21138;-76
2021/01/20 03:57:38;;;;;;;56.88;22.35;;;;;;;;;;1732042;83;21169;-76
2021/01/20 04:00:04;;;;;;;53.63;22.27;;;;;;;;;;1731831;83;21637;-77
2021/01/20 04:02:31;;;;;;;51.15;20.02;;;;;;;;;;1760813;81;21154;-76
2021/01/20 04:04:57;;;;;;;52.38;21.33;;;;;;;;;;1750258;81;21181;-76
2021/01/20 04:07:23;;;;;;;50.83;21.80;;;;;;;;;;1731581;83;21169;-76
2021/01/20 04:09:49;;;;;;;37.88;17.30;;;;;;;;;;1731794;82;21628;-77
2021/01/20 04:12:15;;;;;;;56.13;22.73;;;;;;;;;;1731579;82;21134;-76
2021/01/20 04:14:41;;;;;;;51.90;21.17;;;;;;;;;;1733086;81;21173;-76
2021/01/20 04:17:08;;;;;;;48.70;21.35;;;;;;;;;;1757844;81;21190;-76
2021/01/20 04:19:34;;;;;;;24.00;13.83;;;;;;;;;;1752892;82;21127;-75
2021/01/20 04:22:00;;;;;;;47.75;21.95;;;;;;;;;;1752919;82;21206;-75
2021/01/20 04:24:26;;;;;;;46.77;20.70;;;;;;;;;;1752980;82;21304;-76
2021/01/20 04:26:52;;;;;;;48.80;19.15;;;;;;;;;;1733215;82;21142;-76
2021/01/20 04:29:19;;;;;;;48.08;20.20;;;;;;;;;;1723103;83;21186;-75
2021/01/20 04:31:45;;;;;;;39.55;14.73;;;;;;;;;;1723240;83;21162;-75
2021/01/20 04:34:11;;;;;;;52.83;21.57;;;;;;;;;;1722902;83;21194;-76
2021/01/20 04:36:37;;;;;;;42.23;17.98;;;;;;;;;;1723604;82;21166;-75
2021/01/20 04:39:03;;;;;;;44.83;20.37;;;;;;;;;;1722850;83;21158;-76
2021/01/20 04:41:29;;;;;;;48.40;20.92;;;;;;;;;;1722913;83;21177;-77
2021/01/20 04:43:55;;;;;;;43.58;18.30;;;;;;;;;;1723607;82;21182;-77
2021/01/20 04:46:22;;;;;;;49.65;21.20;;;;;;;;;;1724892;82;21218;-76
2021/01/20 04:48:49;;;;;;;54.65;21.57;;;;;;;;;;1712905;84;21170;-76
2021/01/20 04:51:15;;;;;;;52.80;19.42;;;;;;;;;;1712887;84;21170;-75
2021/01/20 04:53:41;;;;;;;47.50;19.77;;;;;;;;;;1710319;83;21164;-77
2021/01/20 04:56:09;;;;;;;54.03;22.25;;;;;;;;;;1751340;82;21785;-77
2021/01/20 04:58:35;;;;;;;47.03;20.20;;;;;;;;;;1751296;82;21171;-76
2021/01/20 05:01:01;;;;;;;50.08;19.20;;;;;;;;;;1754220;82;21373;-77
2021/01/20 05:03:28;;;;;;;52.98;21.40;;;;;;;;;;1735995;82;21203;-77
2021/01/20 05:05:55;;;;;;;51.48;22.22;;;;;;;;;;1751224;82;21327;-76
2021/01/20 05:08:21;;;;;;;53.00;22.05;;;;;;;;;;1727844;82;21632;-76
2021/01/20 05:10:48;;;;;;;49.80;21.12;;;;;;;;;;1722903;83;21189;-75
2021/01/20 05:13:27;;;;;;;54.48;22.50;;;;;;;;;;1722898;83;21216;-75
2021/01/20 05:15:54;;;;;;;48.73;20.70;;;;;;;;;;1740979;82;21140;-75
2021/01/20 05:18:20;;;;;;;56.18;21.97;;;;;;;;;;1755528;82;21132;-76
2021/01/20 05:20:46;;;;;;;57.05;23.70;;;;;;;;;;1756850;82;21611;-75
2021/01/20 05:23:13;;;;;;;44.65;18.75;;;;;;;;;;1757061;82;21337;-76
2021/01/20 05:25:39;;;;;;;54.18;21.70;;;;;;;;;;1755411;81;21124;-75
2021/01/20 05:28:23;;;;;;;45.33;20.92;;;;;;;;;;1736682;82;21613;-75
2021/01/20 05:30:50;;;;;;;50.45;20.95;;;;;;;;;;1737721;82;21175;-76
2021/01/20 05:33:17;;;;;;;44.08;18.85;;;;;;;;;;1737330;82;21602;-75
2021/01/20 05:35:43;;;;;;;45.00;19.45;;;;;;;;;;1719855;82;21201;-75
2021/01/20 05:38:10;;;;;;;49.25;20.15;;;;;;;;;;1711876;82;21179;-76
2021/01/20 05:40:37;;;;;;;48.48;20.35;;;;;;;;;;1718911;82;21164;-75
2021/01/20 05:43:03;;;;;;;47.85;20.05;;;;;;;;;;1735685;82;21159;-74
2021/01/20 05:45:29;;;;;;;37.40;17.55;;;;;;;;;;1719529;82;21211;-75
2021/01/20 05:48:01;;;;;;;35.88;16.67;;;;;;;;;;1709829;84;21155;-74
2021/01/20 05:50:27;;;;;;;37.50;16.12;;;;;;;;;;1709163;83;21161;-75
2021/01/20 05:53:06;;;;;;;45.48;18.00;;;;;;;;;;1711904;82;22621;-77
2021/01/20 05:55:33;;;;;;;50.85;21.00;;;;;;;;;;1746246;81;21671;-79
2021/01/20 05:57:59;;;;;;;47.88;18.73;;;;;;;;;;1756976;82;21136;-77
2021/01/20 06:00:25;;;;;;;44.63;17.42;;;;;;;;;;1756727;82;21216;-77
2021/01/20 06:02:56;;;;;;;44.00;19.77;;;;;;;;;;1757327;82;21163;-76
2021/01/20 06:05:22;;;;;;;48.58;20.75;;;;;;;;;;1740250;82;21164;-76
2021/01/20 06:07:49;;;;;;;42.65;18.02;;;;;;;;;;1758425;81;21213;-76
2021/01/20 06:10:15;;;;;;;52.20;20.62;;;;;;;;;;1758402;81;21348;-79
2021/01/20 06:12:41;;;;;;;47.05;21.73;;;;;;;;;;1758284;81;21154;-79
2021/01/20 06:15:10;;;;;;;45.08;20.48;;;;;;;;;;1746450;81;21161;-78
2021/01/20 06:17:37;;;;;;;47.95;20.12;;;;;;;;;;1732598;81;21145;-79
2021/01/20 06:20:04;;;;;;;37.08;17.20;;;;;;;;;;1739063;82;21601;-83
2021/01/20 06:22:31;;;;;;;40.43;17.40;;;;;;;;;;1739157;82;21612;-83
2021/01/20 06:25:04;;;;;;;48.58;21.37;;;;;;;;;;1739777;81;21169;-85
2021/01/20 06:27:48;;;;;;;40.80;18.12;;;;;;;;;;1744941;81;21588;-83
2021/01/20 06:30:19;;;;;;;39.13;17.92;;;;;;;;;;1748235;81;21570;-80
2021/01/20 06:35:20;;;;;;;45.78;19.25;;;;;;;;;;1768447;79;22750;-83
2021/01/20 06:37:47;;;;;;;53.95;20.57;;;;;;;;;;1738231;82;21155;-84
2021/01/20 06:40:21;;;;;;;89.17;26.80;;;;;;;;;;1749208;82;21148;-83
2021/01/20 06:42:48;;;;;;;66.70;24.32;;;;;;;;;;1741045;80;21622;-75
2021/01/20 06:45:16;;;;;;;42.03;17.77;;;;;;;;;;1754073;80;21669;-80
2021/01/20 06:48:05;;;;;;;41.25;18.57;;;;;;;;;;1741634;81;21152;-82
2021/01/20 06:53:31;;;;;;;43.70;17.62;;;;;;;;;;1684126;84;21180;-81
2021/01/20 06:56:25;;;;;;;40.90;18.98;;;;;;;;;;1719727;83;21374;-82
2021/01/20 06:59:15;;;;;;;51.20;19.65;;;;;;;;;;1710160;82;21693;-80
2021/01/20 07:01:41;;;;;;;36.53;18.70;;;;;;;;;;1738132;80;21151;-80
2021/01/20 07:04:07;;;;;;;37.88;16.82;;;;;;;;;;1701824;82;21206;-84
2021/01/20 07:06:35;;;;;;;38.85;16.50;;;;;;;;;;1740530;80;21143;-81
2021/01/20 07:09:02;;;;;;;39.83;18.92;;;;;;;;;;1736976;82;21206;-80
2021/01/20 07:11:29;;;;;;;44.88;19.85;;;;;;;;;;1739531;82;21172;-82
2021/01/20 07:13:55;;;;;;;44.10;19.27;;;;;;;;;;1738739;82;21154;-84
2021/01/20 07:16:21;;;;;;;42.43;19.73;;;;;;;;;;1744243;82;21128;-81
2021/01/20 07:18:50;;;;;;;48.42;19.95;;;;;;;;;;1749001;82;21159;-80
2021/01/20 07:21:16;;;;;;;42.90;18.35;;;;;;;;;;1745704;82;21156;-83
2021/01/20 07:23:43;;;;;;;39.83;19.00;;;;;;;;;;1750325;82;21147;-82
2021/01/20 07:26:19;;;;;;;46.68;20.05;;;;;;;;;;1739243;82;21176;-85
2021/01/20 07:29:30;;;;;;;46.35;20.48;;;;;;;;;;1746488;80;21590;-83
2021/01/20 07:31:52;;;;;;;48.63;19.52;;;;;;;;;;1645482;85;21208;-83
2021/01/20 07:34:21;;;;;;;43.70;19.42;;;;;;;;;;1695984;82;21610;-81
2021/01/20 07:37:01;;;;;;;49.20;20.65;;;;;;;;;;1696591;83;21185;-88
2021/01/20 07:39:32;;;;;;;47.17;21.52;;;;;;;;;;1677497;83;21225;-82
2021/01/20 07:41:58;;;;;;;46.55;19.98;;;;;;;;;;1692092;84;21221;-79
2021/01/20 07:44:25;;;;;;;42.08;19.25;;;;;;;;;;1692864;84;21200;-80
2021/01/20 07:47:01;;;;;;;42.80;20.27;;;;;;;;;;1685343;83;21679;-81
2021/01/20 07:49:27;;;;;;;46.23;20.12;;;;;;;;;;1674295;86;21348;-78
2021/01/20 07:52:04;;;;;;;41.35;17.85;;;;;;;;;;1674129;86;21203;-82
2021/01/20 07:54:39;;;;;;;42.05;19.27;;;;;;;;;;1674131;86;21266;-79
2021/01/20 07:57:05;;;;;;;;;;;;;;;;;;1684026;83;21177;-81
2021/01/20 07:59:32;;;;;;;47.60;17.42;;;;;;;;;;1687732;84;20479;-79
2021/01/20 08:02:00;;;;;;;43.08;18.50;;;;;;;;;;1692489;84;21631;-80
2021/01/20 08:04:30;;;;;;;38.50;18.02;;;;;;;;;;1690138;83;21237;-89
2021/01/20 08:06:58;;;;;;;39.00;18.12;;;;;;;;;;1655476;84;21175;-84
2021/01/20 08:09:44;;;;;;;43.75;20.15;;;;;;;;;;1689158;84;21120;-84
2021/01/20 08:12:14;;;;;;;42.70;20.27;;;;;;;;;;1688901;84;21152;-85
2021/01/20 08:14:42;;;;;;;40.60;18.30;;;;;;;;;;1690536;84;21163;-80
2021/01/20 08:17:08;;;;;;;49.00;19.48;;;;;;;;;;1689591;84;21170;-79
2021/01/20 08:19:34;;;;;;;43.90;19.10;;;;;;;;;;1688823;84;21186;-83
2021/01/20 08:22:06;;;;;;;38.73;17.87;;;;;;;;;;1686615;84;21778;-87
2021/01/20 08:24:36;;;;;;;42.10;19.73;;;;;;;;;;1684915;84;21187;-84
2021/01/20 08:27:01;;;;;;;38.98;20.23;;;;;;;;;;1692829;84;21140;-82
2021/01/20 08:29:32;;;;;;;48.98;21.87;;;;;;;;;;1686285;84;21245;-85
2021/01/20 08:32:11;;;;;;;48.05;21.50;;;;;;;;;;1690938;84;21175;-82
2021/01/20 08:34:38;;;;;;;37.75;18.55;;;;;;;;;;1697208;83;21163;-82
2021/01/20 08:37:05;;;;;;;38.05;19.67;;;;;;;;;;1681815;83;21126;-82
2021/01/20 08:39:37;;;;;;;40.48;19.17;;;;;;;;;;1708369;83;21116;-83
2021/01/20 08:42:22;;;;;;;40.90;19.30;;;;;;;;;;1713361;83;21695;-84
2021/01/20 08:45:06;;;;;;;44.77;18.15;;;;;;;;;;1700613;83;21130;-83
2021/01/20 08:47:34;;;;;;;40.78;18.90;;;;;;;;;;1709474;83;21152;-83
2021/01/20 08:50:04;;;;;;;35.70;16.50;;;;;;;;;;1714290;83;21166;-83
2021/01/20 08:52:46;;;;;;;46.60;20.17;;;;;;;;;;1717755;81;21176;-82
2021/01/20 08:55:20;;;;;;;42.73;19.62;;;;;;;;;;1724943;81;21165;-83
2021/01/20 08:57:54;;;;;;;43.48;19.75;;;;;;;;;;1726262;82;21622;-84
2021/01/20 09:00:17;;;;;;;47.95;22.13;;;;;;;;;;1725900;82;21152;-80
2021/01/20 09:02:43;;;;;;;51.28;21.65;;;;;;;;;;1728823;82;21188;-81
2021/01/20 09:05:10;;;;;;;51.77;26.30;;;;;;;;;;1717957;82;21192;-83
2021/01/20 09:07:36;;;;;;;48.50;23.77;;;;;;;;;;1715816;81;21140;-81
2021/01/20 09:10:02;;;;;;;47.62;21.75;;;;;;;;;;1715482;81;21200;-82
2021/01/20 09:12:28;;;;;;;44.33;22.40;;;;;;;;;;1723727;81;21564;-81
2021/01/20 09:14:55;;;;;;;48.10;20.92;;;;;;;;;;1729176;81;21655;-81
2021/01/20 09:17:21;;;;;;;49.77;23.80;;;;;;;;;;1725452;82;21225;-81
2021/01/20 09:19:47;;;;;;;45.73;20.90;;;;;;;;;;1728580;81;21163;-83
2021/01/20 09:22:14;;;;;;;52.25;22.07;;;;;;;;;;1723249;82;21137;-83
2021/01/20 09:24:41;;;;;;;43.28;21.97;;;;;;;;;;1716663;82;21164;-83
2021/01/20 09:27:07;;;;;;;59.03;24.50;;;;;;;;;;1742223;82;21148;-82
2021/01/20 09:29:34;;;;;;;51.40;22.60;;;;;;;;;;1726812;81;21120;-81
2021/01/20 09:32:00;;;;;;;53.35;24.52;;;;;;;;;;1713388;84;21188;-81
2021/01/20 09:34:28;;;;;;;53.83;24.80;;;;;;;;;;1715025;81;21140;-82
2021/01/20 09:36:55;;;;;;;57.73;25.17;;;;;;;;;;1728492;82;21144;-82
2021/01/20 09:39:36;;;;;;;42.53;22.17;;;;;;;;;;1719199;82;21129;-82
2021/01/20 09:42:30;;;;;;;;;;;;;;;;;;;;;
2021/01/20 09:44:55;;;;;;;;;;;;;;;;;;1701069;84;21144;-85
2021/01/20 09:47:21;;;;;;;40.38;20.05;;;;;;;;;;1733154;81;20153;-82
2021/01/20 09:49:47;;;;;;;51.10;24.60;;;;;;;;;;1736518;81;21129;-84
2021/01/20 09:52:15;;;;;;;47.90;22.55;;;;;;;;;;1717471;81;21186;-86
2021/01/20 09:54:42;;;;;;;47.43;24.77;;;;;;;;;;1712396;82;21175;-90
2021/01/20 09:57:09;;;;;;;58.00;28.70;;;;;;;;;;1710843;82;21164;-88
2021/01/20 09:59:37;;;;;;;58.65;28.10;;;;;;;;;;1710930;83;21148;-86
2021/01/20 10:02:03;;;;;;;59.80;28.65;;;;;;;;;;1710758;83;21176;-84
2021/01/20 10:04:41;;;;;;;53.68;27.45;;;;;;;;;;1716359;82;21136;-88
2021/01/20 10:07:08;;;;;;;57.83;27.50;;;;;;;;;;1678814;84;21297;-86
2021/01/20 10:09:39;;;;;;;56.70;26.10;;;;;;;;;;1703460;82;21195;-81
2021/01/20 10:12:12;;;;;;;53.95;27.62;;;;;;;;;;1722286;82;21611;-85
2021/01/20 10:14:40;;;;;;;57.60;27.52;;;;;;;;;;1710318;83;21192;-84
2021/01/20 10:17:10;;;;;;;63.40;30.40;;;;;;;;;;1714216;82;21675;-84
2021/01/20 10:19:38;;;;;;;58.33;25.40;;;;;;;;;;1735947;81;21160;-85
2021/01/20 10:22:06;;;;;;;51.68;25.75;;;;;;;;;;1727703;82;21133;-86
2021/01/20 10:24:32;;;;;;;52.40;25.50;;;;;;;;;;1713382;82;21180;-83
2021/01/20 10:27:01;;;;;;;53.28;24.77;;;;;;;;;;1721719;82;21121;-81
2021/01/20 10:29:30;;;;;;;64.97;34.90;;;;;;;;;;1728065;82;21242;-82
2021/01/20 10:31:56;;;;;;;54.63;27.67;;;;;;;;;;1711671;82;21596;-85
2021/01/20 10:34:25;;;;;;;51.10;27.85;;;;;;;;;;1713839;82;21156;-82
2021/01/20 10:36:52;;;;;;;51.48;24.82;;;;;;;;;;1726886;82;21219;-83
2021/01/20 10:39:23;;;;;;;57.48;28.30;;;;;;;;;;1724140;82;21466;-85
2021/01/20 10:41:52;;;;;;;59.13;26.57;;;;;;;;;;1716326;82;21563;-82
2021/01/20 10:44:24;;;;;;;50.95;25.30;;;;;;;;;;1743646;82;21635;-85
2021/01/20 10:46:51;;;;;;;50.65;25.75;;;;;;;;;;1728743;82;21163;-82
2021/01/20 10:49:17;;;;;;;49.90;25.32;;;;;;;;;;1732375;82;21186;-81
2021/01/20 10:51:49;;;;;;;49.48;24.43;;;;;;;;;;1723982;83;21147;-83
2021/01/20 10:54:17;;;;;;;50.08;25.55;;;;;;;;;;1723724;83;21123;-83
2021/01/20 10:56:46;;;;;;;54.30;25.25;;;;;;;;;;1730041;82;21124;-83
2021/01/20 10:59:15;;;;;;;56.48;27.27;;;;;;;;;;1732478;82;21309;-82
2021/01/20 11:01:44;;;;;;;48.20;23.00;;;;;;;;;;1746714;80;21563;-83
2021/01/20 11:04:10;;;;;;;49.65;25.52;;;;;;;;;;1750112;82;21258;-84
2021/01/20 11:06:38;;;;;;;52.73;25.15;;;;;;;;;;1746676;82;21297;-86
2021/01/20 11:09:06;;;;;;;51.92;25.35;;;;;;;;;;1755567;82;21151;-87
2021/01/20 11:11:32;;;;;;;56.77;25.27;;;;;;;;;;1747330;80;21148;-85
2021/01/20 11:14:04;;;;;;;50.35;24.47;;;;;;;;;;1740140;80;21115;-85
2021/01/20 11:16:39;;;;;;;54.35;25.40;;;;;;;;;;1711922;80;21139;-86
2021/01/20 11:19:07;;;;;;;53.02;25.80;;;;;;;;;;1745185;80;21718;-88
2021/01/20 11:21:37;;;;;;;53.90;27.73;;;;;;;;;;1744093;80;21139;-86
2021/01/20 11:24:03;;;;;;;51.33;24.23;;;;;;;;;;1745225;80;21111;-86
2021/01/20 11:26:29;;;;;;;49.83;24.75;;;;;;;;;;1741940;80;21190;-86
2021/01/20 11:28:56;;;;;;;57.23;27.75;;;;;;;;;;1740610;80;21423;-83
2021/01/20 11:31:22;;;;;;;59.77;29.00;;;;;;;;;;1738545;80;21160;-80
2021/01/20 11:33:54;;;;;;;66.12;30.30;;;;;;;;;;1733219;82;21182;-82
2021/01/20 11:36:21;;;;;;;82.88;39.90;;;;;;;;;;1722769;82;21156;-82
2021/01/20 11:38:48;;;;;;;76.42;36.58;;;;;;;;;;1731005;80;21260;-83
2021/01/20 11:41:17;;;;;;;77.15;37.03;;;;;;;;;;1743862;80;21152;-82
2021/01/20 11:43:44;;;;;;;81.20;41.00;;;;;;;;;;1745563;80;21234;-83
2021/01/20 11:46:10;;;;;;;72.22;37.33;;;;;;;;;;1751792;80;22115;-81
2021/01/20 11:48:36;;;;;;;115.17;56.08;;;;;;;;;;1743661;80;21166;-82
2021/01/20 11:51:03;;;;;;;101.50;50.12;;;;;;;;;;1771670;79;21151;-80
2021/01/20 11:53:29;;;;;;;91.57;45.98;;;;;;;;;;1775497;79;21138;-84
2021/01/20 11:55:56;;;;;;;61.30;30.55;;;;;;;;;;1774863;79;21149;-83
2021/01/20 11:58:27;;;;;;;53.58;25.65;;;;;;;;;;1773188;79;21202;-81
2021/01/20 12:00:50;;;;;;;60.75;28.85;;;;;;;;;;1781804;79;21176;-81
2021/01/20 12:03:16;;;;;;;69.92;35.25;;;;;;;;;;1780889;79;21147;-82
2021/01/20 12:05:43;;;;;;;84.70;44.53;;;;;;;;;;1758473;80;21158;-80
2021/01/20 12:08:09;;;;;;;74.45;37.28;;;;;;;;;;1760732;80;21139;-81
2021/01/20 12:10:38;;;;;;;80.35;42.10;;;;;;;;;;1768504;80;21154;-80
2021/01/20 12:13:05;;;;;;;60.80;29.95;;;;;;;;;;1762369;80;21204;-80
2021/01/20 12:15:31;;;;;;;58.38;27.62;;;;;;;;;;1784554;80;21136;-80
2021/01/20 12:17:59;;;;;;;66.20;32.13;;;;;;;;;;1761539;79;21149;-76
2021/01/20 12:20:25;;;;;;;58.05;27.98;;;;;;;;;;1766093;79;21152;-76
2021/01/20 12:22:51;;;;;;;60.83;28.83;;;;;;;;;;1777654;80;21140;-80
2021/01/20 12:25:17;;;;;;;61.50;29.72;;;;;;;;;;1776982;80;21199;-79
2021/01/20 12:27:44;;;;;;;73.95;33.92;;;;;;;;;;1784133;80;21172;-84
2021/01/20 12:30:11;;;;;;;60.50;28.95;;;;;;;;;;1767930;80;21163;-83
2021/01/20 12:32:38;;;;;;;63.75;30.57;;;;;;;;;;1767455;80;21194;-84
2021/01/20 12:35:05;;;;;;;68.95;30.75;;;;;;;;;;1769130;79;21161;-82
2021/01/20 12:37:44;;;;;;;108.60;50.40;;;;;;;;;;1759710;81;21278;-82
2021/01/20 12:40:09;;;;;;;;;;;;;;;;;;;;;
2021/01/20 12:42:33;;;;;;;84.47;37.38;;;;;;;;;;1760382;81;21121;-83
2021/01/20 12:45:02;;;;;;;69.70;31.80;;;;;;;;;;1758851;81;21521;-85
2021/01/20 12:47:32;;;;;;;60.65;28.83;;;;;;;;;;1770668;81;21298;-86
2021/01/20 12:50:00;;;;;;;55.35;26.57;;;;;;;;;;1769898;81;21558;-85
2021/01/20 12:52:26;;;;;;;76.57;35.55;;;;;;;;;;1741630;81;21599;-85
2021/01/20 12:54:52;;;;;;;62.65;30.02;;;;;;;;;;1740340;81;21156;-82
2021/01/20 12:57:20;;;;;;;64.92;31.50;;;;;;;;;;1740002;81;21136;-84
2021/01/20 12:59:48;;;;;;;59.77;29.52;;;;;;;;;;1726166;81;21136;-83
2021/01/20 13:02:14;;;;;;;61.08;29.12;;;;;;;;;;1753455;81;21596;-83
2021/01/20 13:04:40;;;;;;;48.40;24.30;;;;;;;;;;1750096;81;21275;-83
2021/01/20 13:07:07;;;;;;;74.85;39.18;;;;;;;;;;1762036;81;21561;-84
2021/01/20 13:09:43;;;;;;;69.47;32.50;;;;;;;;;;1768904;81;21157;-87
2021/01/20 13:12:08;;;;;;;69.67;35.13;;;;;;;;;;1739566;82;21287;-85
2021/01/20 13:14:34;;;;;;;72.03;35.60;;;;;;;;;;1746465;81;21181;-83
2021/01/20 13:17:05;;;;;;;63.75;30.40;;;;;;;;;;1752584;81;21278;-83
2021/01/20 13:19:28;;;;;;;70.65;30.68;;;;;;;;;;1740977;81;21860;-85
2021/01/20 13:21:55;;;;;;;69.27;34.35;;;;;;;;;;1769470;81;21703;-85
2021/01/20 13:24:21;;;;;;;67.50;32.98;;;;;;;;;;1757382;81;21160;-88
2021/01/20 13:26:48;;;;;;;56.90;28.62;;;;;;;;;;1740562;81;21144;-84
2021/01/20 13:29:14;;;;;;;63.10;31.00;;;;;;;;;;1758229;81;21149;-87
2021/01/20 13:31:40;;;;;;;49.50;23.42;;;;;;;;;;1732095;81;21209;-87
2021/01/20 13:34:07;;;;;;;55.52;27.42;;;;;;;;;;1770722;81;21299;-86
2021/01/20 13:36:34;;;;;;;61.83;28.65;;;;;;;;;;1755774;80;21156;-87
2021/01/20 13:39:01;;;;;;;62.75;29.75;;;;;;;;;;1745231;81;21290;-87
2021/01/20 13:41:27;;;;;;;59.95;29.25;;;;;;;;;;1745734;81;21116;-88
2021/01/20 13:43:53;;;;;;;63.08;29.63;;;;;;;;;;1754560;81;21267;-88
2021/01/20 13:46:28;;;;;;;66.50;31.80;;;;;;;;;;1740588;82;21334;-86
2021/01/20 13:48:47;;;;;;;76.72;37.88;;;;;;;;;;1735360;82;21176;-87
2021/01/20 13:51:14;;;;;;;86.08;39.65;;;;;;;;;;1741408;81;21156;-88
2021/01/20 13:53:42;;;;;;;69.97;33.08;;;;;;;;;;1752927;81;21263;-88
2021/01/20 13:56:08;;;;;;;69.60;31.62;;;;;;;;;;1758388;79;21266;-87
2021/01/20 13:58:34;;;;;;;61.90;28.80;;;;;;;;;;1753464;79;21121;-85
2021/01/20 14:01:00;;;;;;;59.05;27.73;;;;;;;;;;1756144;81;21293;-88
2021/01/20 14:03:28;;;;;;;65.75;30.10;;;;;;;;;;1740627;81;21139;-89
2021/01/20 14:05:55;;;;;;;70.42;30.10;;;;;;;;;;1742207;81;21144;-89
2021/01/20 14:08:21;;;;;;;62.38;28.90;;;;;;;;;;1740484;81;21635;-88
2021/01/20 14:10:50;;;;;;;73.20;32.90;;;;;;;;;;1740416;82;21176;-89
2021/01/20 14:13:17;;;;;;;78.25;35.60;;;;;;;;;;1764755;81;21592;-89
2021/01/20 14:15:45;;;;;;;70.87;31.80;;;;;;;;;;1768135;81;21192;-89
2021/01/20 14:18:15;;;;;;;70.65;32.08;;;;;;;;;;1763700;81;21148;-87
2021/01/20 14:20:44;;;;;;;65.28;31.37;;;;;;;;;;1770888;81;21247;-88
2021/01/20 14:23:10;;;;;;;66.02;30.57;;;;;;;;;;1760919;81;21161;-88
2021/01/20 14:25:39;;;;;;;75.22;34.95;;;;;;;;;;1750899;81;21204;-88
2021/01/20 14:28:13;;;;;;;67.82;34.08;;;;;;;;;;1740804;81;21136;-89
2021/01/20 14:30:41;;;;;;;108.55;51.88;;;;;;;;;;1745081;81;21707;-89
2021/01/20 14:33:09;;;;;;;93.50;46.68;;;;;;;;;;1738943;81;21104;-89